createdAt,value
2023-02-14T00:01:58.708Z,31.93
2023-02-14T00:07:03.148Z,32.63
2023-02-14T00:12:07.515Z,29.03
2023-02-14T00:22:45.827Z,29.30
2023-02-14T00:27:48.709Z,31.20
2023-02-14T00:32:51.638Z,33.90
2023-02-14T00:37:56.003Z,35.40
2023-02-14T00:42:58.948Z,32.77
2023-02-14T00:48:01.858Z,35.07
2023-02-14T00:53:06.156Z,33.40
2023-02-14T00:58:09.104Z,33.60
2023-02-14T01:03:12.010Z,33.23
2023-02-14T01:08:16.275Z,29.17
2023-02-14T01:13:20.126Z,32.53
2023-02-14T01:18:23.035Z,33.40
2023-02-14T01:23:27.264Z,28.97
2023-02-14T01:28:31.214Z,30.00
2023-02-14T01:33:34.152Z,25.00
2023-02-14T01:38:38.461Z,18.20
2023-02-14T01:43:57.105Z,28.03
2023-02-14T01:49:04.505Z,27.13
2023-02-14T01:54:10.623Z,20.30
2023-02-14T01:59:17.546Z,21.33
2023-02-14T02:04:24.677Z,20.87
2023-02-14T02:09:34.701Z,19.67
2023-02-14T02:14:37.887Z,18.37
2023-02-14T02:20:07.418Z,17.77
2023-02-14T02:25:26.583Z,22.00
2023-02-14T02:31:08.962Z,19.03
2023-02-14T02:36:33.309Z,20.47
2023-02-14T02:41:48.888Z,20.27
2023-02-14T02:46:59.969Z,19.33
2023-02-14T02:52:27.227Z,17.20
2023-02-14T02:57:36.979Z,15.10
2023-02-14T03:02:56.829Z,16.80
2023-02-14T03:08:01.264Z,17.40
2023-02-14T03:13:19.189Z,17.60
2023-02-14T03:18:43.728Z,19.70
2023-02-14T03:23:58.574Z,15.63
2023-02-14T03:29:09.131Z,16.37
2023-02-14T03:34:16.198Z,21.03
2023-02-14T03:39:25.457Z,22.83
2023-02-14T03:44:32.080Z,21.50
2023-02-14T03:49:41.352Z,23.10
2023-02-14T03:54:49.775Z,19.03
2023-02-14T03:59:54.588Z,23.00
2023-02-14T04:05:01.000Z,22.20
2023-02-14T04:10:05.621Z,21.80
2023-02-14T04:15:09.383Z,23.70
2023-02-14T04:20:12.649Z,22.63
2023-02-14T04:25:17.180Z,27.27
2023-02-14T04:30:20.981Z,22.70
2023-02-14T04:35:24.086Z,23.47
2023-02-14T04:40:28.369Z,19.20
2023-02-14T04:45:31.368Z,26.13
2023-02-14T04:50:34.332Z,25.90
2023-02-14T04:55:38.607Z,22.97
2023-02-14T05:00:41.625Z,22.63
2023-02-14T05:05:44.652Z,29.20
2023-02-14T05:10:49.383Z,24.30
2023-02-14T05:15:52.270Z,23.90
2023-02-14T05:20:55.990Z,29.07
2023-02-14T05:26:00.341Z,26.17
2023-02-14T05:31:03.753Z,22.77
2023-02-14T05:36:07.601Z,22.10
2023-02-14T05:41:11.925Z,20.83
2023-02-14T05:46:14.955Z,22.90
2023-02-14T05:51:17.833Z,24.80
2023-02-14T05:56:22.104Z,32.03
2023-02-14T06:01:25.012Z,25.90
2023-02-14T06:06:27.882Z,25.40
2023-02-14T06:11:32.139Z,30.07
2023-02-14T06:16:35.179Z,32.33
2023-02-14T06:21:38.269Z,28.40
2023-02-14T06:26:42.712Z,37.63
2023-02-14T06:31:45.733Z,32.73
2023-02-14T06:36:48.677Z,32.10
2023-02-14T06:41:53.157Z,30.43
2023-02-14T06:46:56.052Z,29.63
2023-02-14T06:51:58.985Z,25.80
2023-02-14T06:57:03.497Z,21.07
2023-02-14T07:02:06.438Z,24.60
2023-02-14T07:07:09.374Z,20.97
2023-02-14T07:12:13.649Z,23.57
2023-02-14T07:17:16.549Z,21.33
2023-02-14T07:22:19.468Z,19.17
2023-02-14T07:27:23.739Z,22.00
2023-02-14T07:32:26.870Z,21.97
2023-02-14T07:37:29.867Z,18.70
2023-02-14T07:42:34.251Z,16.37
2023-02-14T07:47:37.248Z,16.53
2023-02-14T07:52:40.125Z,20.00
2023-02-14T07:57:44.457Z,24.33
2023-02-14T08:02:47.421Z,20.93
2023-02-14T08:07:50.512Z,19.73
2023-02-14T08:13:00.463Z,17.43
2023-02-14T08:18:03.377Z,17.33
2023-02-14T08:23:06.273Z,17.83
2023-02-14T08:28:11.116Z,15.27
2023-02-14T08:33:14.123Z,16.50
2023-02-14T08:38:17.066Z,17.90
2023-02-14T08:43:21.517Z,13.87
2023-02-14T08:48:26.732Z,19.40
2023-02-14T08:53:29.621Z,20.67
2023-02-14T08:58:35.822Z,18.20
2023-02-14T09:03:39.092Z,19.43
2023-02-14T09:08:42.038Z,18.33
2023-02-14T09:13:47.020Z,21.27
2023-02-14T09:18:50.577Z,23.87
2023-02-14T09:23:53.858Z,20.70
2023-02-14T09:28:58.921Z,21.97
2023-02-14T09:34:01.805Z,23.80
2023-02-14T09:39:05.171Z,25.20
2023-02-14T09:44:15.600Z,20.83
2023-02-14T09:49:32.065Z,17.07
2023-02-14T09:54:37.057Z,20.67
2023-02-14T09:59:48.503Z,20.50
2023-02-14T10:05:02.747Z,20.50
2023-02-14T10:10:13.960Z,17.87
2023-02-14T10:15:21.886Z,19.83
2023-02-14T10:20:29.142Z,18.33
2023-02-14T10:25:40.153Z,17.20
2023-02-14T10:30:51.489Z,21.90
2023-02-14T10:50:09.434Z,18.40
2023-02-14T10:55:31.609Z,16.33
2023-02-14T11:00:39.264Z,15.40
2023-02-14T11:06:13.358Z,21.73
2023-02-14T11:18:32.686Z,19.33
2023-02-14T11:23:40.506Z,16.60
2023-02-14T11:28:57.379Z,19.67
2023-02-14T11:34:03.676Z,18.27
2023-02-14T11:39:22.462Z,16.43
2023-02-14T11:44:27.880Z,18.90
2023-02-14T11:49:33.872Z,16.13
2023-02-14T11:54:40.349Z,14.20
2023-02-14T11:59:45.180Z,15.50
2023-02-14T12:04:51.031Z,14.70
2023-02-14T12:10:22.468Z,16.37
2023-02-14T12:15:30.175Z,14.07
2023-02-14T12:27:41.732Z,14.67
2023-02-14T12:32:49.479Z,15.27
2023-02-14T12:38:05.183Z,15.17
2023-02-14T12:43:43.601Z,16.37
2023-02-14T12:49:05.077Z,16.60
2023-02-14T12:54:29.264Z,16.50
2023-02-14T12:59:43.618Z,15.40
2023-02-14T13:04:55.792Z,13.30
2023-02-14T13:10:04.862Z,15.23
2023-02-14T13:15:23.550Z,19.10
2023-02-14T13:20:55.289Z,16.63
2023-02-14T13:26:02.013Z,21.43
2023-02-14T13:31:06.756Z,18.93
2023-02-14T13:36:13.016Z,21.00
2023-02-14T13:41:17.672Z,17.30
2023-02-14T13:46:50.059Z,18.17
2023-02-14T13:57:36.449Z,20.43
2023-02-14T14:02:45.598Z,18.23
2023-02-14T14:07:48.518Z,23.90
2023-02-14T14:12:53.664Z,20.00
2023-02-14T14:18:42.913Z,17.93
2023-02-14T14:23:45.885Z,17.17
2023-02-14T14:28:48.927Z,15.77
2023-02-14T14:34:01.230Z,17.90
2023-02-14T14:39:04.211Z,20.50
2023-02-14T14:44:07.996Z,27.00
2023-02-14T14:49:13.791Z,19.53
2023-02-14T14:54:21.362Z,21.13
2023-02-14T14:59:31.034Z,27.77
2023-02-14T15:04:36.564Z,24.43
2023-02-14T15:09:42.329Z,31.90
2023-02-14T15:14:54.362Z,24.80
2023-02-14T15:20:02.214Z,44.53
2023-02-14T15:25:10.738Z,32.33
2023-02-14T15:30:26.098Z,40.30
2023-02-14T15:35:33.161Z,32.00
2023-02-14T15:40:38.798Z,30.63
2023-02-14T15:45:43.142Z,31.40
2023-02-14T15:50:49.808Z,33.23
2023-02-14T15:55:52.906Z,31.77
2023-02-14T16:00:56.702Z,30.37
2023-02-14T16:06:01.189Z,39.43
2023-02-14T16:11:08.893Z,42.37
2023-02-14T16:16:13.400Z,35.03
2023-02-14T16:21:21.375Z,43.60
2023-02-14T16:26:24.286Z,35.07
2023-02-14T16:31:28.437Z,34.93
2023-02-14T16:36:34.985Z,32.63
2023-02-14T16:41:37.960Z,39.97
2023-02-14T16:46:43.073Z,41.27
2023-02-14T16:51:48.654Z,40.30
2023-02-14T16:56:55.616Z,42.77
2023-02-14T17:01:59.313Z,41.20
2023-02-14T17:07:05.993Z,42.37
2023-02-14T17:12:16.127Z,51.07
2023-02-14T17:17:19.238Z,67.13
2023-02-14T17:22:23.623Z,46.87
2023-02-14T17:27:26.563Z,43.13
2023-02-14T17:32:29.472Z,38.53
2023-02-14T17:37:34.355Z,41.60
2023-02-14T17:42:38.688Z,42.27
2023-02-14T17:47:43.287Z,40.73
2023-02-14T17:52:47.637Z,35.90
2023-02-14T17:57:52.507Z,40.97
2023-02-14T18:02:55.490Z,40.77
2023-02-14T18:07:59.787Z,41.07
2023-02-14T18:13:03.347Z,41.67
2023-02-14T18:18:06.306Z,44.07
2023-02-14T18:23:11.225Z,36.03
2023-02-14T18:28:14.109Z,41.27
2023-02-14T18:33:17.869Z,43.43
2023-02-14T18:38:22.203Z,39.20
2023-02-14T18:43:25.140Z,43.90
2023-02-14T18:48:28.131Z,43.37
2023-02-14T18:53:32.505Z,39.37
2023-02-14T18:58:36.167Z,42.23
2023-02-14T19:03:40.521Z,47.03
2023-02-14T19:08:45.153Z,46.03
2023-02-14T19:13:49.929Z,39.47
2023-02-14T19:18:54.112Z,46.93
2023-02-14T19:23:58.995Z,49.80
2023-02-14T19:29:03.788Z,51.90
2023-02-14T19:34:08.789Z,48.43
2023-02-14T19:39:14.232Z,53.20
2023-02-14T19:44:18.505Z,49.33
2023-02-14T19:49:22.143Z,62.23
2023-02-14T19:54:26.619Z,50.10
2023-02-14T19:59:32.463Z,44.07
2023-02-14T20:04:35.330Z,46.10
2023-02-14T20:09:39.642Z,56.07
2023-02-14T20:14:50.912Z,64.70
2023-02-14T20:19:55.876Z,50.43
2023-02-14T20:25:00.618Z,57.50
2023-02-14T20:30:03.850Z,49.70
2023-02-14T20:35:07.526Z,49.87
2023-02-14T20:40:13.294Z,53.13
2023-02-14T20:45:16.183Z,57.13
2023-02-14T20:50:19.206Z,55.10
2023-02-14T20:55:23.540Z,54.50
2023-02-14T21:00:27.908Z,56.60
2023-02-14T21:05:30.858Z,54.70
2023-02-14T21:10:35.233Z,49.53
2023-02-14T21:15:38.170Z,55.13
2023-02-14T21:20:41.218Z,45.57
2023-02-14T21:25:45.480Z,47.63
2023-02-14T21:30:48.505Z,48.67
2023-02-14T21:35:51.573Z,50.30
2023-02-14T21:41:04.843Z,41.87
2023-02-14T21:46:09.440Z,45.70
2023-02-14T21:51:12.388Z,61.20
2023-02-14T21:56:19.771Z,51.43
2023-02-14T22:01:24.996Z,53.13
2023-02-14T22:06:28.607Z,54.93
2023-02-14T22:11:32.942Z,49.83
2023-02-14T22:16:36.853Z,47.13
2023-02-14T22:21:39.855Z,46.80
2023-02-14T22:26:44.107Z,45.70
2023-02-14T22:31:47.243Z,41.77
2023-02-14T22:36:51.226Z,52.73
2023-02-14T22:41:56.297Z,50.33
2023-02-14T22:46:59.271Z,49.40
2023-02-14T22:52:02.156Z,50.27
2023-02-14T22:57:06.477Z,40.93
2023-02-14T23:02:09.798Z,42.10
2023-02-14T23:07:12.690Z,47.67
2023-02-14T23:12:30.865Z,41.13
2023-02-14T23:17:51.079Z,48.40
2023-02-14T23:22:53.956Z,49.37
2023-02-14T23:27:58.257Z,53.03
2023-02-14T23:33:01.147Z,57.57
2023-02-14T23:38:04.012Z,59.27
2023-02-14T23:43:08.274Z,46.73
2023-02-14T23:48:11.677Z,147.10
2023-02-14T23:53:15.361Z,57.17
2023-02-14T23:58:19.606Z,69.83
